createdAt,value
2017-10-05T00:01:22.080Z,10.70
2017-10-05T00:03:50.338Z,10.80
2017-10-05T00:06:17.813Z,10.70
2017-10-05T00:08:46.069Z,10.80
2017-10-05T00:11:13.544Z,10.80
2017-10-05T00:13:41.782Z,11.00
2017-10-05T00:16:09.284Z,10.90
2017-10-05T00:18:37.523Z,10.70
2017-10-05T00:21:04.993Z,10.70
2017-10-05T00:23:32.486Z,10.70
2017-10-05T00:25:59.956Z,10.70
2017-10-05T00:28:27.429Z,10.80
2017-10-05T00:30:54.929Z,10.90
2017-10-05T00:33:23.169Z,10.90
2017-10-05T00:35:50.636Z,10.90
2017-10-05T00:38:18.144Z,11.00
2017-10-05T00:40:45.637Z,11.00
2017-10-05T00:43:13.109Z,11.00
2017-10-05T00:45:40.597Z,10.90
2017-10-05T00:48:08.833Z,10.90
2017-10-05T00:50:36.305Z,10.90
2017-10-05T00:53:03.798Z,10.90
2017-10-05T00:55:32.037Z,10.90
2017-10-05T00:57:59.510Z,10.80
2017-10-05T01:00:28.189Z,10.90
2017-10-05T01:02:55.661Z,10.90
2017-10-05T01:05:23.897Z,10.90
2017-10-05T01:07:51.385Z,10.90
2017-10-05T01:10:18.859Z,10.90
2017-10-05T01:12:47.137Z,10.90
2017-10-05T01:15:15.393Z,10.90
2017-10-05T01:17:43.628Z,10.90
2017-10-05T01:20:11.100Z,10.90
2017-10-05T01:22:38.593Z,11.00
2017-10-05T01:25:06.829Z,11.00
2017-10-05T01:27:34.304Z,10.90
2017-10-05T01:30:01.798Z,11.00
2017-10-05T01:32:29.265Z,11.00
2017-10-05T01:34:56.741Z,11.00
2017-10-05T01:37:24.231Z,11.00
2017-10-05T01:39:51.701Z,11.00
2017-10-05T01:42:19.938Z,11.00
2017-10-05T01:44:47.449Z,11.00
2017-10-05T01:47:15.686Z,11.00
2017-10-05T01:49:43.163Z,11.00
2017-10-05T01:52:11.440Z,11.00
2017-10-05T01:54:38.914Z,11.00
2017-10-05T01:57:07.165Z,11.10
2017-10-05T01:59:34.657Z,11.10
2017-10-05T02:02:02.130Z,11.00
2017-10-05T02:04:29.600Z,11.00
2017-10-05T02:06:57.091Z,11.00
2017-10-05T02:09:24.568Z,10.90
2017-10-05T02:11:52.809Z,10.80
2017-10-05T02:14:20.301Z,10.80
2017-10-05T02:16:48.537Z,10.80
2017-10-05T02:19:16.009Z,10.70
2017-10-05T02:21:43.501Z,10.80
2017-10-05T02:24:10.981Z,10.80
2017-10-05T02:26:38.455Z,10.90
2017-10-05T02:29:05.944Z,10.80
2017-10-05T02:31:33.420Z,10.80
2017-10-05T02:34:01.660Z,10.70
2017-10-05T02:36:29.149Z,10.70
2017-10-05T02:38:57.381Z,10.80
2017-10-05T02:41:24.855Z,10.70
2017-10-05T02:43:52.350Z,10.80
2017-10-05T02:46:19.831Z,10.80
2017-10-05T02:48:47.301Z,10.80
2017-10-05T02:51:14.795Z,10.80
2017-10-05T02:53:42.265Z,10.80
2017-10-05T02:56:10.506Z,10.60
2017-10-05T02:58:37.997Z,10.60
2017-10-05T03:01:06.237Z,10.60
2017-10-05T03:03:33.706Z,10.60
2017-10-05T03:06:01.197Z,10.60
2017-10-05T03:08:29.710Z,10.70
2017-10-05T03:10:57.185Z,10.70
2017-10-05T03:13:24.677Z,10.70
2017-10-05T03:15:52.145Z,10.70
2017-10-05T03:18:20.393Z,10.70
2017-10-05T03:20:47.885Z,10.70
2017-10-05T03:23:16.130Z,10.70
2017-10-05T03:25:43.605Z,10.70
2017-10-05T03:28:12.128Z,10.50
2017-10-05T03:30:39.599Z,10.50
2017-10-05T03:33:07.069Z,10.50
2017-10-05T03:35:34.880Z,10.50
2017-10-05T03:38:03.113Z,10.50
2017-10-05T03:40:30.846Z,10.50
2017-10-05T03:42:58.337Z,10.40
2017-10-05T03:45:25.809Z,10.30
2017-10-05T03:47:53.421Z,10.40
2017-10-05T03:50:20.918Z,10.40
2017-10-05T03:52:48.391Z,10.40
2017-10-05T03:55:16.629Z,10.50
2017-10-05T03:57:44.121Z,10.50
2017-10-05T04:00:12.365Z,10.50
2017-10-05T04:02:39.841Z,10.50
2017-10-05T04:05:07.334Z,10.60
2017-10-05T04:07:34.834Z,10.60
2017-10-05T04:10:02.333Z,10.60
2017-10-05T04:12:30.825Z,10.60
2017-10-05T04:14:58.305Z,10.60
2017-10-05T04:17:25.777Z,10.60
2017-10-05T04:19:53.277Z,10.60
2017-10-05T04:22:20.749Z,10.60
2017-10-05T04:24:48.987Z,10.60
2017-10-05T04:27:16.586Z,10.60
2017-10-05T04:29:44.834Z,10.60
2017-10-05T04:32:12.309Z,10.60
2017-10-05T04:34:40.566Z,10.50
2017-10-05T04:37:08.041Z,10.50
2017-10-05T04:39:36.290Z,10.50
2017-10-05T04:42:03.789Z,10.50
2017-10-05T04:44:31.262Z,10.50
2017-10-05T04:46:59.034Z,10.60
2017-10-05T04:49:26.526Z,10.60
2017-10-05T04:51:54.155Z,10.60
2017-10-05T04:54:21.917Z,10.60
2017-10-05T04:56:49.885Z,10.70
2017-10-05T04:59:17.368Z,10.70
2017-10-05T05:01:44.837Z,10.80
2017-10-05T05:04:12.329Z,10.80
2017-10-05T05:06:39.806Z,10.80
2017-10-05T05:09:07.278Z,10.70
2017-10-05T05:11:34.770Z,10.80
2017-10-05T05:14:02.246Z,10.70
2017-10-05T05:16:30.490Z,10.70
2017-10-05T05:18:57.987Z,10.70
2017-10-05T05:21:26.229Z,10.60
2017-10-05T05:23:53.704Z,10.60
2017-10-05T05:26:21.962Z,10.70
2017-10-05T05:28:49.441Z,10.60
2017-10-05T05:31:17.681Z,10.60
2017-10-05T05:33:45.173Z,10.60
2017-10-05T05:36:13.413Z,10.60
2017-10-05T05:38:40.885Z,10.60
2017-10-05T05:41:08.377Z,10.70
2017-10-05T05:43:35.866Z,10.70
2017-10-05T05:46:03.342Z,10.70
2017-10-05T05:48:30.833Z,10.70
2017-10-05T05:50:59.076Z,10.70
2017-10-05T05:53:26.547Z,10.70
2017-10-05T05:55:54.273Z,10.80
2017-10-05T05:58:21.754Z,10.80
2017-10-05T06:00:49.997Z,11.00
2017-10-05T06:03:17.488Z,11.00
2017-10-05T06:05:44.963Z,11.00
2017-10-05T06:08:12.441Z,11.10
2017-10-05T06:10:40.702Z,11.40
2017-10-05T06:13:08.173Z,11.40
2017-10-05T06:15:36.633Z,11.60
2017-10-05T06:18:04.381Z,11.60
2017-10-05T06:20:31.849Z,11.70
2017-10-05T06:22:59.321Z,11.80
2017-10-05T06:25:27.584Z,11.90
2017-10-05T06:27:55.057Z,11.90
2017-10-05T06:30:23.297Z,12.10
2017-10-05T06:32:51.037Z,12.10
2017-10-05T06:35:18.509Z,12.20
2017-10-05T06:37:45.981Z,12.10
2017-10-05T06:40:13.474Z,12.20
2017-10-05T06:42:41.717Z,12.40
2017-10-05T06:45:09.197Z,12.40
2017-10-05T06:47:37.456Z,12.60
2017-10-05T06:50:04.929Z,12.60
2017-10-05T06:52:33.168Z,12.90
2017-10-05T06:55:00.661Z,12.90
2017-10-05T06:57:28.903Z,13.10
2017-10-05T06:59:56.373Z,13.10
2017-10-05T07:02:23.893Z,13.30
2017-10-05T07:04:51.365Z,13.50
2017-10-05T07:07:18.841Z,13.70
2017-10-05T07:09:46.337Z,13.70
2017-10-05T07:12:14.797Z,14.10
2017-10-05T07:14:42.270Z,14.10
2017-10-05T07:17:10.531Z,14.60
2017-10-05T07:19:38.032Z,14.60
2017-10-05T07:22:05.801Z,14.70
2017-10-05T07:24:33.296Z,14.90
2017-10-05T07:27:00.778Z,15.20
2017-10-05T07:29:28.281Z,15.30
2017-10-05T07:31:55.784Z,15.50
2017-10-05T07:34:24.313Z,15.90
2017-10-05T07:36:52.185Z,15.80
2017-10-05T07:39:19.945Z,15.80
2017-10-05T07:41:47.417Z,16.00
2017-10-05T07:44:15.657Z,16.30
2017-10-05T07:46:43.152Z,16.30
2017-10-05T07:49:10.630Z,16.30
2017-10-05T07:51:38.105Z,16.30
2017-10-05T07:54:06.369Z,16.70
2017-10-05T07:56:33.845Z,16.70
2017-10-05T07:59:02.083Z,17.10
2017-10-05T08:01:29.577Z,17.00
2017-10-05T08:03:57.818Z,17.10
2017-10-05T08:06:25.297Z,17.10
2017-10-05T08:08:52.788Z,17.20
2017-10-05T08:11:20.473Z,17.50
2017-10-05T08:13:47.961Z,17.80
2017-10-05T08:16:15.457Z,17.80
2017-10-05T08:18:42.933Z,18.10
2017-10-05T08:21:10.404Z,17.90
2017-10-05T08:23:37.898Z,18.00
2017-10-05T08:26:05.365Z,18.10
2017-10-05T08:28:32.842Z,18.20
2017-10-05T08:31:00.341Z,18.20
2017-10-05T08:33:27.814Z,18.40
2017-10-05T08:35:55.289Z,18.60
2017-10-05T08:38:23.818Z,18.70
2017-10-05T08:40:51.336Z,18.70
2017-10-05T08:43:19.577Z,18.90
2017-10-05T08:45:47.088Z,18.80
2017-10-05T08:48:14.559Z,19.30
2017-10-05T08:50:42.029Z,19.50
2017-10-05T08:53:09.521Z,19.30
2017-10-05T08:55:36.994Z,19.90
2017-10-05T08:58:04.470Z,19.50
2017-10-05T09:00:31.974Z,19.80
2017-10-05T09:02:59.446Z,19.90
2017-10-05T09:05:26.920Z,20.00
2017-10-05T09:07:55.185Z,20.50
2017-10-05T09:10:22.661Z,20.50
2017-10-05T09:12:50.897Z,20.40
2017-10-05T09:15:19.158Z,20.40
2017-10-05T09:17:46.624Z,20.40
2017-10-05T09:20:14.101Z,20.10
2017-10-05T09:22:41.601Z,20.10
2017-10-05T09:25:09.069Z,19.80
2017-10-05T09:27:36.552Z,19.80
2017-10-05T09:30:04.051Z,19.70
2017-10-05T09:32:32.293Z,19.50
2017-10-05T09:34:59.769Z,19.50
2017-10-05T09:37:27.591Z,19.40
2017-10-05T09:39:55.065Z,19.50
2017-10-05T09:42:22.537Z,19.50
2017-10-05T09:44:50.038Z,19.70
2017-10-05T09:47:17.518Z,19.80
2017-10-05T09:49:44.993Z,20.40
2017-10-05T09:52:13.628Z,21.90
2017-10-05T09:54:41.116Z,21.90
2017-10-05T09:57:08.594Z,22.40
2017-10-05T09:59:36.089Z,23.00
2017-10-05T10:02:04.331Z,23.30
2017-10-05T10:04:31.805Z,23.20
2017-10-05T10:06:59.298Z,22.90
2017-10-05T10:09:26.773Z,22.40
2017-10-05T10:11:54.249Z,22.40
2017-10-05T10:14:21.741Z,22.00
2017-10-05T10:16:49.225Z,22.20
2017-10-05T10:19:16.706Z,22.10
2017-10-05T10:21:44.209Z,22.10
2017-10-05T10:24:11.685Z,21.90
2017-10-05T10:26:39.927Z,21.40
2017-10-05T10:29:07.665Z,21.40
2017-10-05T10:31:35.137Z,21.30
2017-10-05T10:34:02.625Z,21.10
2017-10-05T10:36:30.122Z,21.00
2017-10-05T10:38:57.597Z,20.90
2017-10-05T10:41:25.072Z,20.90
2017-10-05T10:43:52.565Z,20.80
2017-10-05T10:46:20.805Z,20.60
2017-10-05T10:48:48.281Z,20.60
2017-10-05T10:51:16.686Z,20.60
2017-10-05T10:53:44.162Z,20.50
2017-10-05T10:56:11.641Z,20.40
2017-10-05T10:58:39.137Z,20.20
2017-10-05T11:01:06.618Z,20.10
2017-10-05T11:03:34.094Z,19.90
2017-10-05T11:06:01.589Z,19.90
2017-10-05T11:08:29.322Z,19.90
2017-10-05T11:10:56.798Z,19.80
2017-10-05T11:13:24.290Z,19.80
2017-10-05T11:15:52.533Z,19.90
2017-10-05T11:18:20.001Z,19.90
2017-10-05T11:20:47.492Z,20.30
2017-10-05T11:23:15.729Z,21.10
2017-10-05T11:25:43.200Z,21.10
2017-10-05T11:28:10.692Z,21.80
2017-10-05T11:30:38.169Z,22.60
2017-10-05T11:33:05.645Z,23.30
2017-10-05T11:35:33.145Z,23.90
2017-10-05T11:38:01.386Z,25.00
2017-10-05T11:40:29.997Z,25.00
2017-10-05T11:42:57.488Z,25.00
2017-10-05T11:45:24.957Z,24.60
2017-10-05T11:47:52.430Z,23.80
2017-10-05T11:50:19.921Z,23.60
2017-10-05T11:52:47.393Z,23.50
2017-10-05T11:55:15.634Z,23.60
2017-10-05T11:57:43.129Z,23.50
2017-10-05T12:00:11.365Z,22.40
2017-10-05T12:02:39.606Z,22.00
2017-10-05T12:05:07.108Z,22.00
2017-10-05T12:07:34.588Z,21.70
2017-10-05T12:10:03.108Z,21.00
2017-10-05T12:12:30.601Z,21.00
2017-10-05T12:14:58.081Z,20.90
2017-10-05T12:17:26.326Z,20.50
2017-10-05T12:19:53.827Z,20.50
2017-10-05T12:22:21.304Z,20.40
2017-10-05T12:24:48.783Z,20.30
2017-10-05T12:27:16.277Z,20.20
2017-10-05T12:29:43.749Z,20.10
2017-10-05T12:32:11.988Z,19.80
2017-10-05T12:34:40.256Z,19.70
2017-10-05T12:37:07.730Z,19.60
2017-10-05T12:39:35.201Z,19.50
2017-10-05T12:42:02.705Z,19.40
2017-10-05T12:44:30.182Z,19.20
2017-10-05T12:46:57.658Z,19.10
2017-10-05T12:49:25.153Z,19.20
2017-10-05T12:51:52.633Z,19.10
2017-10-05T12:54:20.105Z,19.00
2017-10-05T12:56:47.598Z,19.00
2017-10-05T12:59:15.081Z,18.90
2017-10-05T13:01:42.552Z,18.70
2017-10-05T13:04:10.046Z,18.70
2017-10-05T13:06:37.521Z,18.60
2017-10-05T13:09:05.001Z,18.30
2017-10-05T13:11:33.269Z,18.00
2017-10-05T13:14:01.514Z,17.90
2017-10-05T13:16:28.986Z,17.90
2017-10-05T13:18:56.476Z,17.80
2017-10-05T13:21:23.950Z,17.70
2017-10-05T13:23:51.425Z,17.70
2017-10-05T13:26:18.916Z,17.60
2017-10-05T13:28:46.389Z,17.50
2017-10-05T13:31:14.625Z,17.40
2017-10-05T13:33:42.121Z,17.30
2017-10-05T13:36:10.364Z,17.30
2017-10-05T13:38:37.837Z,17.30
2017-10-05T13:41:05.337Z,17.30
2017-10-05T13:43:32.854Z,17.20
2017-10-05T13:46:00.348Z,17.10
2017-10-05T13:48:28.626Z,16.90
2017-10-05T13:50:56.109Z,16.90
2017-10-05T13:53:23.585Z,16.80
2017-10-05T13:55:51.093Z,16.70
2017-10-05T13:58:18.566Z,16.70
2017-10-05T14:00:46.046Z,16.70
2017-10-05T14:03:13.542Z,16.60
2017-10-05T14:05:41.785Z,16.60
2017-10-05T14:08:09.261Z,16.60
2017-10-05T14:10:36.763Z,16.60
2017-10-05T14:13:04.245Z,16.50
2017-10-05T14:15:31.717Z,16.50
2017-10-05T14:17:59.229Z,16.50
2017-10-05T14:20:26.705Z,16.40
2017-10-05T14:22:54.182Z,16.40
2017-10-05T14:25:21.678Z,16.30
2017-10-05T14:27:49.929Z,16.30
2017-10-05T14:30:17.409Z,16.30
2017-10-05T14:32:45.673Z,16.10
2017-10-05T14:35:13.149Z,16.10
2017-10-05T14:37:41.398Z,16.10
2017-10-05T14:40:08.889Z,16.10
2017-10-05T14:42:37.129Z,16.10
2017-10-05T14:45:04.605Z,16.10
2017-10-05T14:47:32.869Z,15.80
2017-10-05T14:50:01.105Z,15.50
2017-10-05T14:52:29.716Z,15.20
2017-10-05T14:54:57.208Z,15.10
2017-10-05T14:57:25.449Z,14.50
2017-10-05T14:59:52.929Z,14.40
2017-10-05T15:02:20.425Z,14.30
2017-10-05T15:04:47.901Z,14.10
2017-10-05T15:07:15.378Z,14.10
2017-10-05T15:09:42.870Z,13.90
2017-10-05T15:12:11.113Z,13.60
2017-10-05T15:14:38.593Z,13.60
2017-10-05T15:17:06.091Z,13.60
2017-10-05T15:19:33.569Z,13.50
2017-10-05T15:22:01.050Z,13.50
2017-10-05T15:24:28.775Z,13.50
2017-10-05T15:26:56.252Z,13.50
2017-10-05T15:29:23.725Z,13.40
2017-10-05T15:31:51.217Z,13.40
2017-10-05T15:34:19.457Z,13.30
2017-10-05T15:36:46.962Z,13.30
2017-10-05T15:39:14.462Z,13.30
2017-10-05T15:41:41.938Z,13.30
2017-10-05T15:44:09.411Z,13.20
2017-10-05T15:46:37.674Z,13.20
2017-10-05T15:49:05.149Z,13.20
2017-10-05T15:51:33.388Z,13.20
2017-10-05T15:54:00.886Z,13.20
2017-10-05T15:56:28.428Z,13.20
2017-10-05T15:58:56.669Z,13.10
2017-10-05T16:01:24.160Z,13.10
2017-10-05T16:03:52.405Z,13.10
2017-10-05T16:06:19.877Z,13.00
2017-10-05T16:08:47.372Z,13.10
2017-10-05T16:11:14.845Z,13.00
2017-10-05T16:13:42.317Z,13.00
2017-10-05T16:16:09.810Z,13.00
2017-10-05T16:18:37.281Z,13.00
2017-10-05T16:21:05.522Z,12.90
2017-10-05T16:23:33.017Z,12.90
2017-10-05T16:26:01.255Z,12.90
2017-10-05T16:28:28.737Z,12.90
2017-10-05T16:30:56.237Z,12.90
2017-10-05T16:33:24.473Z,12.90
2017-10-05T16:35:51.940Z,12.90
2017-10-05T16:38:20.201Z,12.90
2017-10-05T16:40:47.673Z,12.90
2017-10-05T16:43:15.929Z,12.90
2017-10-05T16:45:43.416Z,12.90
2017-10-05T16:48:10.886Z,12.90
2017-10-05T16:50:38.357Z,12.90
2017-10-05T16:53:05.866Z,12.90
2017-10-05T16:55:33.338Z,12.90
2017-10-05T16:58:01.582Z,12.90
2017-10-05T17:00:29.094Z,12.80
2017-10-05T17:02:56.574Z,12.80
2017-10-05T17:05:24.045Z,12.80
2017-10-05T17:07:51.541Z,12.80
2017-10-05T17:10:19.781Z,12.80
2017-10-05T17:12:47.254Z,12.80
2017-10-05T17:15:14.750Z,12.80
2017-10-05T17:17:45.065Z,12.70
2017-10-05T17:20:12.603Z,12.30
2017-10-05T17:22:40.864Z,11.80
2017-10-05T17:25:08.365Z,11.70
2017-10-05T17:27:35.894Z,11.60
2017-10-05T17:30:03.409Z,11.40
2017-10-05T17:32:30.878Z,11.40
2017-10-05T17:34:58.357Z,11.40
2017-10-05T17:37:25.850Z,11.40
2017-10-05T17:39:53.321Z,11.30
2017-10-05T17:42:20.798Z,11.30
2017-10-05T17:44:49.057Z,11.30
2017-10-05T17:47:16.537Z,11.20
2017-10-05T17:49:44.010Z,11.20
2017-10-05T17:52:11.517Z,11.10
2017-10-05T17:54:38.993Z,11.10
2017-10-05T17:57:06.512Z,11.00
2017-10-05T17:59:34.773Z,11.00
2017-10-05T18:02:02.254Z,11.00
2017-10-05T18:04:29.730Z,11.00
2017-10-05T18:06:57.229Z,11.10
2017-10-05T18:09:24.705Z,11.10
2017-10-05T18:11:52.946Z,11.00
2017-10-05T18:14:20.458Z,11.00
2017-10-05T18:16:48.134Z,11.00
2017-10-05T18:19:15.613Z,11.00
2017-10-05T18:21:43.113Z,11.10
2017-10-05T18:24:11.357Z,11.10
2017-10-05T18:26:39.108Z,11.10
2017-10-05T18:29:06.601Z,11.10
2017-10-05T18:31:34.865Z,11.10
2017-10-05T18:34:02.340Z,11.10
2017-10-05T18:36:30.605Z,11.10
2017-10-05T18:38:58.086Z,11.10
2017-10-05T18:41:26.385Z,11.10
2017-10-05T18:43:54.721Z,11.10
2017-10-05T18:46:22.966Z,11.20
2017-10-05T18:48:50.441Z,11.10
2017-10-05T18:51:17.937Z,11.20
2017-10-05T18:53:45.410Z,11.20
2017-10-05T18:56:12.887Z,11.20
2017-10-05T18:58:40.382Z,11.20
2017-10-05T19:01:07.869Z,11.20
2017-10-05T19:03:35.343Z,11.20
2017-10-05T19:06:03.690Z,11.20
2017-10-05T19:08:31.930Z,11.20
2017-10-05T19:10:59.410Z,11.20
2017-10-05T19:13:26.918Z,11.20
2017-10-05T19:15:54.409Z,11.20
2017-10-05T19:18:21.900Z,11.20
2017-10-05T19:20:50.164Z,11.20
2017-10-05T19:23:18.417Z,11.20
2017-10-05T19:25:45.920Z,11.10
2017-10-05T19:28:13.434Z,11.20
2017-10-05T19:30:40.914Z,11.20
2017-10-05T19:33:09.222Z,11.20
2017-10-05T19:35:36.720Z,11.20
2017-10-05T19:38:04.201Z,11.20
2017-10-05T19:40:31.750Z,11.20
2017-10-05T19:42:59.242Z,11.30
2017-10-05T19:45:27.030Z,11.30
2017-10-05T19:47:54.511Z,11.20
2017-10-05T19:50:22.026Z,11.30
2017-10-05T19:52:49.810Z,11.20
2017-10-05T19:55:17.290Z,11.30
2017-10-05T19:57:44.782Z,11.30
2017-10-05T20:00:13.034Z,11.40
2017-10-05T20:02:40.546Z,11.30
2017-10-05T20:05:08.265Z,11.40
2017-10-05T20:07:35.790Z,11.40
2017-10-05T20:10:03.270Z,11.50
2017-10-05T20:12:30.767Z,11.50
2017-10-05T20:28:33.450Z,10.70
2017-10-05T20:31:04.846Z,10.60
2017-10-05T20:33:32.322Z,10.60
2017-10-05T20:36:00.590Z,10.40
2017-10-05T20:38:28.070Z,10.40
2017-10-05T20:40:56.309Z,10.40
2017-10-05T20:43:23.807Z,10.40
2017-10-05T20:45:51.291Z,10.30
2017-10-05T20:48:19.054Z,10.30
2017-10-05T20:50:47.318Z,10.10
2017-10-05T20:53:14.794Z,10.10
2017-10-05T20:55:42.269Z,10.10
2017-10-05T20:58:09.766Z,10.00
2017-10-05T21:00:38.006Z,9.90
2017-10-05T21:03:05.487Z,10.00
2017-10-05T21:05:33.748Z,9.80
2017-10-05T21:08:01.228Z,9.80
2017-10-05T21:10:29.473Z,9.70
2017-10-05T21:12:56.979Z,9.70
2017-10-05T21:15:24.450Z,9.70
2017-10-05T21:17:51.922Z,9.60
2017-10-05T21:20:19.414Z,9.60
2017-10-05T21:22:46.886Z,9.60
2017-10-05T21:25:15.173Z,9.50
2017-10-05T21:27:43.433Z,9.40
2017-10-05T21:30:11.672Z,9.30
2017-10-05T21:32:39.149Z,9.30
2017-10-05T21:35:06.642Z,9.30
2017-10-05T21:37:34.116Z,9.30
2017-10-05T21:40:01.590Z,9.30
2017-10-05T21:42:29.081Z,9.00
2017-10-05T21:44:56.557Z,8.90
2017-10-05T21:47:24.809Z,8.60
2017-10-05T21:49:52.298Z,8.60
2017-10-05T21:52:19.775Z,8.60
2017-10-05T21:54:47.246Z,8.50
2017-10-05T21:57:14.738Z,8.40
2017-10-05T21:59:42.210Z,8.40
2017-10-05T22:02:10.455Z,8.40
2017-10-05T22:04:37.958Z,8.40
2017-10-05T22:07:05.439Z,8.40
2017-10-05T22:09:32.912Z,8.50
2017-10-05T22:12:00.410Z,8.60
2017-10-05T22:14:27.890Z,8.60
2017-10-05T22:16:56.122Z,8.80
2017-10-05T22:19:23.615Z,8.80
2017-10-05T22:21:51.854Z,8.80
2017-10-05T22:24:19.325Z,8.80
2017-10-05T22:26:46.986Z,8.80
2017-10-05T22:29:14.457Z,8.80
2017-10-05T22:31:42.979Z,9.00
2017-10-05T22:34:10.474Z,8.90
2017-10-05T22:36:37.962Z,9.00
2017-10-05T22:39:06.203Z,8.90
2017-10-05T22:41:33.778Z,8.90
2017-10-05T22:44:01.249Z,8.90
2017-10-05T22:46:29.505Z,9.00
2017-10-05T22:48:57.002Z,9.00
2017-10-05T22:51:24.478Z,9.00
2017-10-05T22:53:51.950Z,9.00
2017-10-05T22:56:19.464Z,8.90
2017-10-05T22:58:47.698Z,8.90
2017-10-05T23:01:15.175Z,8.90
2017-10-05T23:03:42.670Z,8.90
2017-10-05T23:06:10.447Z,8.90
2017-10-05T23:08:37.918Z,8.80
2017-10-05T23:11:05.410Z,8.60
2017-10-05T23:13:32.887Z,8.60
2017-10-05T23:16:01.398Z,8.80
2017-10-05T23:18:28.894Z,8.80
2017-10-05T23:20:56.619Z,8.80
2017-10-05T23:23:24.095Z,8.80
2017-10-05T23:25:51.590Z,8.80
2017-10-05T23:28:19.863Z,8.50
2017-10-05T23:30:48.102Z,8.50
2017-10-05T23:33:15.603Z,8.50
2017-10-05T23:35:43.846Z,8.40
2017-10-05T23:38:11.362Z,8.40
2017-10-05T23:40:38.858Z,8.40
2017-10-05T23:43:06.338Z,8.30
2017-10-05T23:45:33.814Z,8.30
2017-10-05T23:48:02.074Z,8.50
2017-10-05T23:50:29.546Z,8.40
2017-10-05T23:52:57.030Z,8.60
2017-10-05T23:55:24.531Z,8.60
2017-10-05T23:57:52.014Z,8.60
